createdAt,value
2022-12-05T09:49:53.380Z,2.10
2022-12-05T09:52:25.247Z,2.40
2022-12-05T09:54:57.679Z,2.60
2022-12-05T09:57:33.718Z,2.53
2022-12-05T10:00:03.057Z,2.47
2022-12-05T10:02:35.905Z,2.20
2022-12-05T10:05:09.797Z,2.70
2022-12-05T10:07:41.185Z,1.90
2022-12-05T10:10:18.536Z,2.60
2022-12-05T10:12:46.468Z,2.60
2022-12-05T10:15:18.366Z,2.00
2022-12-05T10:17:50.179Z,1.90
2022-12-05T10:20:22.704Z,2.33
2022-12-05T10:22:54.553Z,2.27
2022-12-05T10:25:26.400Z,1.80
2022-12-05T10:27:58.164Z,2.23
2022-12-05T10:30:30.118Z,1.93
2022-12-05T10:33:06.418Z,1.93
2022-12-05T10:35:36.332Z,1.73
2022-12-05T10:38:08.103Z,1.90
2022-12-05T10:40:40.017Z,2.33
2022-12-05T10:43:11.781Z,2.07
2022-12-05T10:45:43.582Z,2.20
2022-12-05T10:48:15.400Z,1.53
2022-12-05T10:50:47.238Z,1.20
2022-12-05T10:53:19.119Z,1.63
2022-12-05T10:56:28.327Z,1.30
2022-12-05T10:58:24.317Z,1.30
2022-12-05T11:00:56.133Z,1.20
2022-12-05T11:03:28.207Z,1.67
2022-12-05T11:06:00.006Z,1.33
2022-12-05T11:09:02.487Z,1.27
2022-12-05T11:11:05.424Z,1.57
2022-12-05T11:13:37.229Z,1.27
2022-12-05T11:16:09.065Z,1.30
2022-12-05T11:18:41.293Z,1.70
2022-12-05T11:21:13.130Z,1.53
2022-12-05T11:23:44.922Z,1.20
2022-12-05T11:26:19.622Z,1.70
2022-12-05T11:28:51.445Z,1.33
2022-12-05T11:31:23.267Z,1.70
2022-12-05T11:34:00.506Z,1.40
2022-12-05T11:36:28.448Z,1.73
2022-12-05T11:39:00.249Z,1.63
2022-12-05T11:41:32.069Z,1.37
2022-12-05T11:44:03.874Z,1.33
2022-12-05T11:46:35.772Z,1.83
2022-12-05T11:49:07.637Z,1.20
2022-12-05T11:51:39.431Z,1.87
2022-12-05T11:54:11.248Z,1.40
